createdAt,value
2023-01-13T00:01:54.784Z,2.60
2023-01-13T00:06:56.899Z,2.35
2023-01-13T00:11:59.047Z,1.92
2023-01-13T00:17:01.463Z,2.38
2023-01-13T00:22:03.848Z,2.20
2023-01-13T00:27:06.144Z,2.88
2023-01-13T00:32:08.413Z,2.60
2023-01-13T00:37:13.128Z,2.60
2023-01-13T00:42:33.615Z,2.50
2023-01-13T00:47:35.819Z,2.22
2023-01-13T00:52:37.988Z,3.53
2023-01-13T00:57:40.160Z,3.60
2023-01-13T01:02:42.375Z,3.03
2023-01-13T01:07:44.432Z,2.50
2023-01-13T01:12:46.467Z,3.30
2023-01-13T01:17:48.546Z,3.15
2023-01-13T01:22:50.599Z,3.13
2023-01-13T01:27:53.773Z,3.38
2023-01-13T01:32:57.324Z,4.25
2023-01-13T01:37:59.462Z,4.25
2023-01-13T01:43:20.270Z,3.47
2023-01-13T01:48:22.323Z,3.72
2023-01-13T01:53:26.222Z,3.60
2023-01-13T01:58:45.586Z,2.13
2023-01-13T02:03:56.453Z,2.50
2023-01-13T02:08:59.769Z,1.70
2023-01-13T02:14:01.983Z,2.13
2023-01-13T02:19:56.715Z,1.70
2023-01-13T02:25:24.342Z,2.03
2023-01-13T02:31:06.518Z,1.80
2023-01-13T02:36:37.693Z,1.70
2023-01-13T02:42:10.546Z,2.05
2023-01-13T02:47:22.692Z,1.98
2023-01-13T02:52:37.250Z,2.28
2023-01-13T02:57:41.049Z,1.73
2023-01-13T03:02:43.341Z,1.63
2023-01-13T03:07:53.548Z,1.90
2023-01-13T03:12:56.513Z,2.20
2023-01-13T03:18:06.016Z,1.63
2023-01-13T03:23:17.538Z,1.88
2023-01-13T03:28:36.892Z,1.88
2023-01-13T03:33:55.284Z,1.70
2023-01-13T03:39:03.065Z,2.03
2023-01-13T03:44:22.217Z,2.88
2023-01-13T03:49:46.553Z,3.00
2023-01-13T03:54:54.794Z,2.13
2023-01-13T04:00:00.049Z,2.35
2023-01-13T04:05:05.062Z,1.83
2023-01-13T04:10:10.345Z,2.40
2023-01-13T04:15:13.092Z,2.67
2023-01-13T04:20:15.617Z,2.72
2023-01-13T04:25:17.885Z,2.22
2023-01-13T04:30:20.009Z,2.58
2023-01-13T04:35:22.170Z,2.58
2023-01-13T04:40:24.242Z,2.55
2023-01-13T04:45:26.411Z,2.03
2023-01-13T04:50:28.998Z,2.92
2023-01-13T04:55:32.052Z,2.42
2023-01-13T05:00:34.874Z,2.25
2023-01-13T05:05:38.046Z,2.50
2023-01-13T05:10:40.262Z,2.30
2023-01-13T05:16:01.857Z,2.00
2023-01-13T05:21:04.143Z,2.22
2023-01-13T05:26:06.511Z,2.35
2023-01-13T05:31:08.670Z,1.80
2023-01-13T05:36:10.819Z,1.75
2023-01-13T05:41:31.641Z,1.77
2023-01-13T05:46:33.798Z,1.60
2023-01-13T05:51:35.963Z,1.80
2023-01-13T05:56:38.114Z,3.50
2023-01-13T06:01:40.264Z,3.05
2023-01-13T06:06:43.526Z,3.72
2023-01-13T06:11:46.479Z,2.38
2023-01-13T06:16:48.664Z,2.45
2023-01-13T06:21:50.806Z,2.30
2023-01-13T06:26:53.148Z,2.25
2023-01-13T06:31:56.399Z,2.40
2023-01-13T06:36:58.545Z,2.08
2023-01-13T06:42:19.263Z,2.10
2023-01-13T06:47:22.495Z,2.90
2023-01-13T06:52:24.646Z,1.98
2023-01-13T06:57:26.732Z,1.85
2023-01-13T07:02:28.888Z,2.28
2023-01-13T07:07:32.689Z,2.25
2023-01-13T07:12:54.712Z,2.28
2023-01-13T07:18:00.196Z,2.92
2023-01-13T07:23:02.270Z,2.88
2023-01-13T07:28:04.620Z,2.42
2023-01-13T07:33:06.706Z,2.78
2023-01-13T07:38:08.838Z,3.45
2023-01-13T07:43:31.627Z,2.53
2023-01-13T07:48:35.268Z,2.92
2023-01-13T07:53:39.111Z,3.00
2023-01-13T07:58:41.251Z,2.63
2023-01-13T08:03:43.907Z,2.55
2023-01-13T08:08:46.166Z,2.50
2023-01-13T08:13:48.341Z,2.20
2023-01-13T08:18:50.429Z,2.47
2023-01-13T08:23:52.514Z,2.22
2023-01-13T08:28:54.681Z,2.35
2023-01-13T08:33:56.812Z,2.58
2023-01-13T08:38:58.957Z,2.90
2023-01-13T08:44:01.060Z,2.58
2023-01-13T08:49:03.562Z,2.45
2023-01-13T08:54:05.923Z,2.60
2023-01-13T08:59:17.504Z,3.65
2023-01-13T09:04:24.141Z,2.47
2023-01-13T09:09:27.802Z,2.45
2023-01-13T09:14:33.971Z,2.60
2023-01-13T09:19:36.637Z,2.65
2023-01-13T09:24:38.801Z,3.70
2023-01-13T09:29:41.477Z,3.30
2023-01-13T09:35:01.577Z,3.05
2023-01-13T09:40:19.317Z,3.70
2023-01-13T09:45:25.706Z,5.25
2023-01-13T09:50:39.906Z,5.53
2023-01-13T09:55:43.631Z,3.97
2023-01-13T10:01:04.496Z,4.05
2023-01-13T10:06:21.193Z,5.40
2023-01-13T10:11:48.114Z,4.03
2023-01-13T10:16:50.219Z,4.45
2023-01-13T10:22:18.823Z,4.00
2023-01-13T10:27:40.804Z,4.13
2023-01-13T10:32:46.573Z,3.70
2023-01-13T10:37:57.654Z,3.70
2023-01-13T10:43:06.741Z,4.63
2023-01-13T10:48:15.008Z,4.65
2023-01-13T10:53:24.080Z,3.72
2023-01-13T10:58:26.608Z,3.78
2023-01-13T11:03:41.720Z,3.78
2023-01-13T11:08:47.386Z,3.72
2023-01-13T11:14:09.980Z,3.88
2023-01-13T11:19:18.350Z,3.88
2023-01-13T11:24:41.985Z,2.78
2023-01-13T11:30:22.775Z,3.53
2023-01-13T11:35:25.267Z,3.95
2023-01-13T11:40:40.544Z,3.38
2023-01-13T11:45:45.491Z,3.43
2023-01-13T11:51:02.843Z,3.30
2023-01-13T11:56:33.770Z,3.55
2023-01-13T12:02:00.459Z,3.90
2023-01-13T12:07:12.747Z,4.22
2023-01-13T12:12:34.107Z,4.32
2023-01-13T12:17:54.430Z,4.28
2023-01-13T12:23:01.238Z,3.45
2023-01-13T12:28:28.694Z,4.03
2023-01-13T12:33:45.686Z,3.88
2023-01-13T12:39:19.819Z,3.92
2023-01-13T12:44:21.897Z,3.38
2023-01-13T12:49:27.237Z,4.13
2023-01-13T12:54:41.066Z,3.97
2023-01-13T13:00:05.881Z,3.97
2023-01-13T13:05:13.950Z,3.63
2023-01-13T13:10:28.863Z,3.95
2023-01-13T13:15:34.140Z,4.55
2023-01-13T13:20:58.937Z,3.08
2023-01-13T13:26:22.118Z,3.65
2023-01-13T13:31:44.315Z,3.95
2023-01-13T13:37:02.708Z,3.92
2023-01-13T13:42:36.221Z,3.17
2023-01-13T13:47:38.993Z,3.75
2023-01-13T13:52:51.829Z,3.67
2023-01-13T13:57:55.970Z,3.40
2023-01-13T14:03:01.616Z,3.75
2023-01-13T14:08:14.244Z,3.10
2023-01-13T14:13:27.617Z,2.80
2023-01-13T14:18:32.967Z,3.65
2023-01-13T14:23:35.097Z,2.85
2023-01-13T14:28:38.664Z,2.75
2023-01-13T14:33:46.038Z,2.90
2023-01-13T14:39:05.759Z,3.10
2023-01-13T14:44:27.946Z,2.67
2023-01-13T14:49:40.409Z,2.83
2023-01-13T14:54:51.210Z,2.80
2023-01-13T14:59:57.442Z,2.80
2023-01-13T15:05:24.952Z,3.17
2023-01-13T15:10:33.708Z,2.90
2023-01-13T15:15:38.458Z,2.42
2023-01-13T15:20:41.882Z,3.03
2023-01-13T15:25:45.268Z,2.65
2023-01-13T15:30:48.996Z,2.40
2023-01-13T15:35:52.885Z,2.90
2023-01-13T15:40:55.187Z,2.22
2023-01-13T15:46:16.052Z,2.45
2023-01-13T15:51:19.354Z,2.50
2023-01-13T15:56:26.662Z,2.17
2023-01-13T16:01:28.808Z,2.03
2023-01-13T16:06:36.208Z,2.65
2023-01-13T16:11:38.302Z,2.17
2023-01-13T16:16:40.898Z,2.58
2023-01-13T16:21:43.059Z,2.15
2023-01-13T16:26:45.244Z,2.20
2023-01-13T16:31:47.440Z,1.83
2023-01-13T16:36:50.291Z,2.28
2023-01-13T16:41:52.463Z,2.90
2023-01-13T16:46:54.511Z,1.83
2023-01-13T16:51:56.625Z,2.00
2023-01-13T16:56:58.815Z,1.83
2023-01-13T17:02:02.156Z,1.95
2023-01-13T17:07:08.191Z,1.50
2023-01-13T17:17:24.818Z,1.42
2023-01-13T17:22:26.946Z,2.45
2023-01-13T17:27:29.072Z,2.13
2023-01-13T17:32:31.271Z,1.60
2023-01-13T17:37:33.803Z,1.63
2023-01-13T17:42:37.425Z,2.05
2023-01-13T17:47:39.620Z,2.20
2023-01-13T17:52:41.752Z,2.30
2023-01-13T17:57:43.957Z,2.67
2023-01-13T18:02:46.245Z,3.08
2023-01-13T18:07:48.368Z,2.85
2023-01-13T18:12:50.478Z,3.10
2023-01-13T18:17:52.538Z,2.17
2023-01-13T18:23:13.458Z,2.85
2023-01-13T18:28:15.583Z,2.60
2023-01-13T18:33:17.615Z,2.60
2023-01-13T18:38:28.617Z,2.58
2023-01-13T18:43:33.190Z,2.45
2023-01-13T18:48:35.225Z,2.78
2023-01-13T18:53:37.351Z,2.35
2023-01-13T18:58:50.343Z,1.73
2023-01-13T19:04:05.063Z,2.60
2023-01-13T19:09:11.166Z,6.82
2023-01-13T19:14:34.011Z,4.50
2023-01-13T19:19:44.938Z,5.60
2023-01-13T19:24:47.082Z,3.85
2023-01-13T19:29:52.137Z,4.82
2023-01-13T19:34:59.110Z,3.75
2023-01-13T19:40:01.393Z,4.15
2023-01-13T19:45:21.970Z,2.10
2023-01-13T19:50:24.817Z,1.98
2023-01-13T19:55:28.084Z,2.30
2023-01-13T20:00:30.307Z,3.80
2023-01-13T20:05:32.504Z,1.92
2023-01-13T20:10:34.824Z,1.15
2023-01-13T20:15:38.900Z,1.55
2023-01-13T20:20:41.038Z,1.35
2023-01-13T20:25:43.264Z,3.08
2023-01-13T20:30:45.387Z,4.88
2023-01-13T20:35:57.218Z,2.03
2023-01-13T20:41:23.808Z,2.60
2023-01-13T20:46:25.994Z,2.72
2023-01-13T20:51:28.047Z,3.20
2023-01-13T20:56:30.427Z,2.40
2023-01-13T21:01:32.888Z,2.38
2023-01-13T21:06:35.526Z,2.05
2023-01-13T21:11:56.205Z,2.38
2023-01-13T21:16:58.246Z,2.30
2023-01-13T21:22:00.392Z,2.63
2023-01-13T21:27:02.516Z,1.98
2023-01-13T21:32:04.809Z,1.67
2023-01-13T21:37:07.096Z,1.60
2023-01-13T21:42:35.499Z,1.65
2023-01-13T21:47:49.885Z,1.42
2023-01-13T21:52:52.808Z,1.50
2023-01-13T21:58:11.740Z,1.23
2023-01-13T22:03:18.654Z,1.20
2023-01-13T22:08:20.761Z,1.20
2023-01-13T22:13:41.788Z,1.00
2023-01-13T22:18:43.972Z,1.23
2023-01-13T22:23:46.124Z,1.17
2023-01-13T22:28:48.181Z,0.95
2023-01-13T22:33:56.309Z,1.02
2023-01-13T22:39:00.516Z,1.08
2023-01-13T22:44:02.830Z,0.80
2023-01-13T22:49:04.962Z,1.20
2023-01-13T22:54:07.558Z,1.10
2023-01-13T22:59:12.546Z,1.50
2023-01-13T23:04:14.745Z,1.42
2023-01-13T23:09:16.946Z,2.00
2023-01-13T23:14:19.238Z,1.65
2023-01-13T23:19:23.785Z,1.38
2023-01-13T23:24:27.926Z,1.40
2023-01-13T23:29:30.340Z,1.60
2023-01-13T23:34:32.535Z,1.52
2023-01-13T23:39:34.657Z,3.47
2023-01-13T23:44:36.758Z,2.00
2023-01-13T23:49:39.017Z,2.28
2023-01-13T23:54:41.118Z,2.40
2023-01-13T23:59:43.623Z,2.45
